createdAt,value
2022-12-08T00:00:00.001Z,59.82
2022-12-08T00:01:10.708Z,60.33
2022-12-08T00:02:13.904Z,62.26
2022-12-08T00:03:15.999Z,63.07
2022-12-08T00:04:17.872Z,64.42
2022-12-08T00:05:38.063Z,64.57
2022-12-08T00:07:02.907Z,64.18
2022-12-08T00:08:23.492Z,62.54
2022-12-08T00:09:25.462Z,61.57
2022-12-08T00:10:48.351Z,60.87
2022-12-08T00:12:04.136Z,59.63
2022-12-08T00:13:05.806Z,58.00
2022-12-08T00:14:07.545Z,57.05
2022-12-08T00:15:09.611Z,57.28
2022-12-08T00:16:12.298Z,57.59
2022-12-08T00:17:16.531Z,58.63
2022-12-08T00:18:18.309Z,59.90
2022-12-08T00:19:20.827Z,60.51
2022-12-08T00:20:22.547Z,61.09
2022-12-08T00:21:24.303Z,61.95
2022-12-08T00:22:26.078Z,62.71
2022-12-08T00:23:28.256Z,64.34
2022-12-08T00:24:33.277Z,65.17
2022-12-08T00:25:38.100Z,65.17
2022-12-08T00:26:40.414Z,63.95
2022-12-08T00:27:42.169Z,63.11
2022-12-08T00:28:43.969Z,62.28
2022-12-08T00:29:46.083Z,61.53
2022-12-08T00:30:48.168Z,60.61
2022-12-08T00:31:50.652Z,59.93
2022-12-08T00:32:52.457Z,59.13
2022-12-08T00:33:54.186Z,57.93
2022-12-08T00:34:56.324Z,56.99
2022-12-08T00:35:58.168Z,57.15
2022-12-08T00:37:00.554Z,57.84
2022-12-08T00:38:02.259Z,58.41
2022-12-08T00:39:04.019Z,59.14
2022-12-08T00:40:06.799Z,60.43
2022-12-08T00:41:18.341Z,61.58
2022-12-08T00:42:20.283Z,62.48
2022-12-08T00:43:22.164Z,63.96
2022-12-08T00:44:23.985Z,65.09
2022-12-08T00:45:25.920Z,65.43
2022-12-08T00:46:27.711Z,65.04
2022-12-08T00:47:29.677Z,64.19
2022-12-08T00:48:31.403Z,62.95
2022-12-08T00:49:33.238Z,62.28
2022-12-08T00:50:35.054Z,61.50
2022-12-08T00:51:37.664Z,60.30
2022-12-08T00:52:39.607Z,59.65
2022-12-08T00:53:41.447Z,59.02
2022-12-08T00:54:43.197Z,57.73
2022-12-08T00:55:44.992Z,57.24
2022-12-08T00:56:46.730Z,57.75
2022-12-08T00:57:48.479Z,58.36
2022-12-08T00:58:50.517Z,59.25
2022-12-08T00:59:52.257Z,60.43
2022-12-08T01:00:54.159Z,61.37
2022-12-08T01:01:56.044Z,62.57
2022-12-08T01:02:59.107Z,63.98
2022-12-08T01:04:05.351Z,65.30
2022-12-08T01:05:07.384Z,65.20
2022-12-08T01:06:10.437Z,64.78
2022-12-08T01:07:12.252Z,64.01
2022-12-08T01:08:14.063Z,62.87
2022-12-08T01:09:17.799Z,61.77
2022-12-08T01:10:19.500Z,60.82
2022-12-08T01:11:21.493Z,60.22
2022-12-08T01:12:23.966Z,59.49
2022-12-08T01:13:25.643Z,58.30
2022-12-08T01:14:27.512Z,57.18
2022-12-08T01:15:29.235Z,57.14
2022-12-08T01:16:34.194Z,57.72
2022-12-08T01:17:38.099Z,58.44
2022-12-08T01:18:39.852Z,59.71
2022-12-08T01:19:41.582Z,60.69
2022-12-08T01:20:43.285Z,61.69
2022-12-08T01:21:46.481Z,62.36
2022-12-08T01:22:48.558Z,63.99
2022-12-08T01:23:50.825Z,65.34
2022-12-08T01:24:52.681Z,65.85
2022-12-08T01:25:54.414Z,65.49
2022-12-08T01:26:56.220Z,64.80
2022-12-08T01:27:57.927Z,63.94
2022-12-08T01:28:59.955Z,62.71
2022-12-08T01:30:02.215Z,61.83
2022-12-08T01:31:04.641Z,61.26
2022-12-08T01:32:08.606Z,60.32
2022-12-08T01:33:10.327Z,59.75
2022-12-08T01:34:12.637Z,58.93
2022-12-08T01:35:14.549Z,57.62
2022-12-08T01:36:22.749Z,57.33
2022-12-08T01:37:24.459Z,57.87
2022-12-08T01:38:26.384Z,58.76
2022-12-08T01:39:28.214Z,59.27
2022-12-08T01:40:29.959Z,60.52
2022-12-08T01:41:34.674Z,61.40
2022-12-08T01:42:38.309Z,62.90
2022-12-08T01:43:58.733Z,64.94
2022-12-08T01:45:03.347Z,65.93
2022-12-08T01:46:06.236Z,65.77
2022-12-08T01:47:09.366Z,65.34
2022-12-08T01:48:19.468Z,64.43
2022-12-08T01:49:28.025Z,63.33
2022-12-08T01:50:31.365Z,62.54
2022-12-08T01:51:50.710Z,61.66
2022-12-08T01:52:57.556Z,61.19
2022-12-08T01:53:59.761Z,60.41
2022-12-08T01:55:13.154Z,59.93
2022-12-08T01:56:32.380Z,59.50
2022-12-08T01:57:42.913Z,58.06
2022-12-08T01:58:49.858Z,57.38
2022-12-08T02:00:03.126Z,57.91
2022-12-08T02:01:10.581Z,58.97
2022-12-08T02:02:12.712Z,59.55
2022-12-08T02:03:29.459Z,60.53
2022-12-08T02:04:31.165Z,61.83
2022-12-08T02:05:39.698Z,63.25
2022-12-08T02:06:45.515Z,65.08
2022-12-08T02:07:49.371Z,66.21
2022-12-08T02:08:52.738Z,65.93
2022-12-08T02:09:55.174Z,65.46
2022-12-08T02:10:57.152Z,64.42
2022-12-08T02:12:00.707Z,63.50
2022-12-08T02:13:04.808Z,62.80
2022-12-08T02:14:10.271Z,62.00
2022-12-08T02:15:12.911Z,61.36
2022-12-08T02:16:57.977Z,60.51
2022-12-08T02:18:11.698Z,59.82
2022-12-08T02:19:47.437Z,59.35
2022-12-08T02:20:51.778Z,57.98
2022-12-08T02:22:17.987Z,58.02
2022-12-08T02:23:47.949Z,59.01
2022-12-08T02:25:24.285Z,60.30
2022-12-08T02:26:55.937Z,61.95
2022-12-08T02:28:39.339Z,63.85
2022-12-08T02:30:08.119Z,65.76
2022-12-08T02:31:41.796Z,65.59
2022-12-08T02:33:02.704Z,64.52
2022-12-08T02:34:13.551Z,63.34
2022-12-08T02:35:23.987Z,62.61
2022-12-08T02:36:39.858Z,61.76
2022-12-08T02:37:55.261Z,60.79
2022-12-08T02:39:25.735Z,59.94
2022-12-08T02:40:53.167Z,59.13
2022-12-08T02:42:22.080Z,57.45
2022-12-08T02:43:34.431Z,57.52
2022-12-08T02:44:45.194Z,59.04
2022-12-08T02:45:59.436Z,60.16
2022-12-08T02:47:14.023Z,61.77
2022-12-08T02:48:15.875Z,62.81
2022-12-08T02:49:17.743Z,64.20
2022-12-08T02:50:19.985Z,65.53
2022-12-08T02:51:21.805Z,65.51
2022-12-08T02:52:23.449Z,65.08
2022-12-08T02:53:31.006Z,64.62
2022-12-08T02:54:35.583Z,63.61
2022-12-08T02:56:08.298Z,62.65
2022-12-08T02:57:12.701Z,61.52
2022-12-08T02:58:32.641Z,60.82
2022-12-08T03:00:02.563Z,60.35
2022-12-08T03:01:26.334Z,59.58
2022-12-08T03:03:02.077Z,58.82
2022-12-08T03:04:33.366Z,57.49
2022-12-08T03:05:50.003Z,57.98
2022-12-08T03:06:59.355Z,59.50
2022-12-08T03:08:22.758Z,60.43
2022-12-08T03:09:41.619Z,62.04
2022-12-08T03:10:53.011Z,62.90
2022-12-08T03:12:18.317Z,65.15
2022-12-08T03:13:28.662Z,66.19
2022-12-08T03:14:33.772Z,65.71
2022-12-08T03:15:38.928Z,64.93
2022-12-08T03:16:47.227Z,64.21
2022-12-08T03:17:57.767Z,63.44
2022-12-08T03:19:11.159Z,62.37
2022-12-08T03:20:19.814Z,61.62
2022-12-08T03:21:22.987Z,61.08
2022-12-08T03:22:27.720Z,60.23
2022-12-08T03:23:31.199Z,59.85
2022-12-08T03:24:38.070Z,59.43
2022-12-08T03:25:52.229Z,58.14
2022-12-08T03:27:02.742Z,57.48
2022-12-08T03:28:05.944Z,58.07
2022-12-08T03:29:08.129Z,58.58
2022-12-08T03:30:10.416Z,59.73
2022-12-08T03:31:15.813Z,61.15
2022-12-08T03:32:35.093Z,62.43
2022-12-08T03:33:43.380Z,64.05
2022-12-08T03:34:49.798Z,65.21
2022-12-08T03:35:54.390Z,65.12
2022-12-08T03:36:56.141Z,64.69
2022-12-08T03:38:07.502Z,64.08
2022-12-08T03:39:09.288Z,63.17
2022-12-08T03:40:15.276Z,62.31
2022-12-08T03:41:19.909Z,61.65
2022-12-08T03:42:21.652Z,60.83
2022-12-08T03:43:23.387Z,60.28
2022-12-08T03:44:25.106Z,59.61
2022-12-08T03:45:26.966Z,59.06
2022-12-08T03:47:31.129Z,57.31
2022-12-08T03:48:32.840Z,57.84
2022-12-08T03:49:34.553Z,58.66
2022-12-08T03:50:36.262Z,59.87
2022-12-08T03:51:37.974Z,60.99
2022-12-08T03:52:39.789Z,61.82
2022-12-08T03:53:41.777Z,62.26
2022-12-08T03:54:43.580Z,62.84
2022-12-08T03:55:45.285Z,64.70
2022-12-08T03:56:47.047Z,66.18
2022-12-08T03:57:48.818Z,66.06
2022-12-08T03:58:51.165Z,65.53
2022-12-08T03:59:52.930Z,64.90
2022-12-08T04:00:54.651Z,64.14
2022-12-08T04:01:56.436Z,63.41
2022-12-08T04:02:58.281Z,62.45
2022-12-08T04:04:00.164Z,61.70
2022-12-08T04:05:01.880Z,61.11
2022-12-08T04:06:03.781Z,60.49
2022-12-08T04:07:05.502Z,60.18
2022-12-08T04:08:07.276Z,59.54
2022-12-08T04:09:09.011Z,58.67
2022-12-08T04:10:10.948Z,57.66
2022-12-08T04:11:12.707Z,57.53
2022-12-08T04:12:14.466Z,57.97
2022-12-08T04:13:16.163Z,59.04
2022-12-08T04:14:17.941Z,60.84
2022-12-08T04:15:19.896Z,61.81
2022-12-08T04:16:27.834Z,62.61
2022-12-08T04:17:29.617Z,64.34
2022-12-08T04:18:32.473Z,65.32
2022-12-08T04:19:34.281Z,65.58
2022-12-08T04:20:39.400Z,65.08
2022-12-08T04:21:41.087Z,64.39
2022-12-08T04:22:42.811Z,63.56
2022-12-08T04:23:45.727Z,62.68
2022-12-08T04:24:48.033Z,61.84
2022-12-08T04:25:52.372Z,60.97
2022-12-08T04:26:54.091Z,60.48
2022-12-08T04:27:56.356Z,60.03
2022-12-08T04:28:58.207Z,59.46
2022-12-08T04:29:59.928Z,58.59
2022-12-08T04:31:02.072Z,57.82
2022-12-08T04:32:04.134Z,57.82
2022-12-08T04:33:05.914Z,58.79
2022-12-08T04:34:07.800Z,59.53
2022-12-08T04:35:09.608Z,60.20
2022-12-08T04:36:11.432Z,61.24
2022-12-08T04:37:13.198Z,62.22
2022-12-08T04:38:17.344Z,63.94
2022-12-08T04:39:19.054Z,65.37
2022-12-08T04:40:20.833Z,65.74
2022-12-08T04:41:22.718Z,65.58
2022-12-08T04:42:24.550Z,64.93
2022-12-08T04:43:26.363Z,64.13
2022-12-08T04:44:28.170Z,62.94
2022-12-08T04:45:30.708Z,62.39
2022-12-08T04:46:32.512Z,61.63
2022-12-08T04:47:34.945Z,60.79
2022-12-08T04:48:38.966Z,60.23
2022-12-08T04:49:40.770Z,59.37
2022-12-08T04:50:44.638Z,58.38
2022-12-08T04:51:46.438Z,57.56
2022-12-08T04:52:48.182Z,57.81
2022-12-08T04:53:50.015Z,58.58
2022-12-08T04:54:51.784Z,59.63
2022-12-08T04:55:53.515Z,60.80
2022-12-08T04:56:55.313Z,61.39
2022-12-08T04:57:57.094Z,62.44
2022-12-08T04:58:58.831Z,64.25
2022-12-08T05:00:00.590Z,65.42
2022-12-08T05:01:02.450Z,65.74
2022-12-08T05:02:04.452Z,65.40
2022-12-08T05:03:06.707Z,64.60
2022-12-08T05:04:08.549Z,63.89
2022-12-08T05:05:10.698Z,63.12
2022-12-08T05:06:14.147Z,62.13
2022-12-08T05:07:16.071Z,61.25
2022-12-08T05:08:17.890Z,60.38
2022-12-08T05:09:19.655Z,59.89
2022-12-08T05:10:21.500Z,59.03
2022-12-08T05:11:23.245Z,57.97
2022-12-08T05:12:25.249Z,57.32
2022-12-08T05:13:27.010Z,57.43
2022-12-08T05:14:28.730Z,58.20
2022-12-08T05:15:30.459Z,59.17
2022-12-08T05:16:32.317Z,60.29
2022-12-08T05:17:34.220Z,61.71
2022-12-08T05:18:37.716Z,63.29
2022-12-08T05:19:39.488Z,64.78
2022-12-08T05:20:41.239Z,65.38
2022-12-08T05:21:44.064Z,65.18
2022-12-08T05:22:45.975Z,64.55
2022-12-08T05:23:47.716Z,63.40
2022-12-08T05:24:49.452Z,62.47
2022-12-08T05:25:51.239Z,61.65
2022-12-08T05:26:52.985Z,60.65
2022-12-08T05:28:06.234Z,59.86
2022-12-08T05:29:16.661Z,58.58
2022-12-08T05:30:18.551Z,57.42
2022-12-08T05:31:20.327Z,57.31
2022-12-08T05:32:22.141Z,58.02
2022-12-08T05:33:23.908Z,58.97
2022-12-08T05:34:25.763Z,59.78
2022-12-08T05:35:27.477Z,60.97
2022-12-08T05:36:29.223Z,62.03
2022-12-08T05:37:31.047Z,62.98
2022-12-08T05:38:32.996Z,64.76
2022-12-08T05:39:34.906Z,65.34
2022-12-08T05:40:40.441Z,64.95
2022-12-08T05:41:42.498Z,64.24
2022-12-08T05:42:44.278Z,63.41
2022-12-08T05:43:48.265Z,62.24
2022-12-08T05:44:50.025Z,61.21
2022-12-08T05:45:51.867Z,60.50
2022-12-08T05:46:53.826Z,59.83
2022-12-08T05:47:55.614Z,59.31
2022-12-08T05:49:00.343Z,58.03
2022-12-08T05:50:02.565Z,57.08
2022-12-08T05:51:05.239Z,57.18
2022-12-08T05:52:07.098Z,58.15
2022-12-08T05:53:08.854Z,58.70
2022-12-08T05:54:10.746Z,60.40
2022-12-08T05:55:12.488Z,61.15
2022-12-08T05:56:15.449Z,61.63
2022-12-08T05:57:17.226Z,62.74
2022-12-08T05:58:21.193Z,64.59
2022-12-08T05:59:23.212Z,65.88
2022-12-08T06:00:25.007Z,65.95
2022-12-08T06:01:31.779Z,65.52
2022-12-08T06:02:34.434Z,64.63
2022-12-08T06:03:36.364Z,63.94
2022-12-08T06:04:38.202Z,62.92
2022-12-08T06:05:45.673Z,62.08
2022-12-08T06:06:47.538Z,61.41
2022-12-08T06:07:49.385Z,60.89
2022-12-08T06:08:51.570Z,60.11
2022-12-08T06:09:53.322Z,59.71
2022-12-08T06:10:55.065Z,58.76
2022-12-08T06:11:56.814Z,57.75
2022-12-08T06:12:58.599Z,57.57
2022-12-08T06:14:01.089Z,58.34
2022-12-08T06:15:02.926Z,59.30
2022-12-08T06:16:06.297Z,60.04
2022-12-08T06:17:08.088Z,61.16
2022-12-08T06:18:11.299Z,62.22
2022-12-08T06:19:13.139Z,63.61
2022-12-08T06:20:15.190Z,65.29
2022-12-08T06:21:17.753Z,65.97
2022-12-08T06:22:19.594Z,65.73
2022-12-08T06:23:21.495Z,64.94
2022-12-08T06:24:23.386Z,64.25
2022-12-08T06:25:25.269Z,63.62
2022-12-08T06:26:27.039Z,62.31
2022-12-08T06:27:28.834Z,61.37
2022-12-08T06:28:31.276Z,60.78
2022-12-08T06:29:33.071Z,60.17
2022-12-08T06:30:35.424Z,59.55
2022-12-08T06:31:37.220Z,58.51
2022-12-08T06:32:39.118Z,57.64
2022-12-08T06:33:41.084Z,57.80
2022-12-08T06:34:43.259Z,58.60
2022-12-08T06:35:45.027Z,59.28
2022-12-08T06:36:46.786Z,60.09
2022-12-08T06:37:48.967Z,61.16
2022-12-08T06:38:51.826Z,62.72
2022-12-08T06:39:53.571Z,64.04
2022-12-08T06:40:57.290Z,65.37
2022-12-08T06:42:17.614Z,65.56
2022-12-08T06:43:19.397Z,64.78
2022-12-08T06:44:21.218Z,63.98
2022-12-08T06:45:23.048Z,62.95
2022-12-08T06:46:24.979Z,62.28
2022-12-08T06:47:26.922Z,61.66
2022-12-08T06:48:28.679Z,60.87
2022-12-08T06:49:30.428Z,60.30
2022-12-08T06:50:35.103Z,59.79
2022-12-08T06:51:36.841Z,58.97
2022-12-08T06:52:47.356Z,57.85
2022-12-08T06:53:54.955Z,57.88
2022-12-08T06:54:56.687Z,58.62
2022-12-08T06:55:59.826Z,59.45
2022-12-08T06:57:01.860Z,60.60
2022-12-08T06:58:03.917Z,61.79
2022-12-08T06:59:05.689Z,61.85
2022-12-08T07:00:08.499Z,62.92
2022-12-08T07:01:13.310Z,65.02
2022-12-08T07:02:15.410Z,66.03
2022-12-08T07:03:17.392Z,66.14
2022-12-08T07:04:19.185Z,65.51
2022-12-08T07:05:21.027Z,64.90
2022-12-08T07:06:24.975Z,64.08
2022-12-08T07:07:26.751Z,63.07
2022-12-08T07:08:28.550Z,62.06
2022-12-08T07:09:30.324Z,61.00
2022-12-08T07:10:32.202Z,60.54
2022-12-08T07:11:34.035Z,59.68
2022-12-08T07:12:35.734Z,58.92
2022-12-08T07:13:37.887Z,57.95
2022-12-08T07:14:39.671Z,57.87
2022-12-08T07:15:41.468Z,58.59
2022-12-08T07:16:43.371Z,59.26
2022-12-08T07:17:45.274Z,59.73
2022-12-08T07:18:47.104Z,61.19
2022-12-08T07:19:48.825Z,62.78
2022-12-08T07:20:50.581Z,64.37
2022-12-08T07:21:52.911Z,65.32
2022-12-08T07:22:54.769Z,65.25
2022-12-08T07:23:58.005Z,64.64
2022-12-08T07:24:59.997Z,63.67
2022-12-08T07:26:04.101Z,62.58
2022-12-08T07:27:06.019Z,61.55
2022-12-08T07:28:09.758Z,60.68
2022-12-08T07:29:11.726Z,59.90
2022-12-08T07:30:15.044Z,59.07
2022-12-08T07:31:22.297Z,57.87
2022-12-08T07:32:24.388Z,57.57
2022-12-08T07:33:26.959Z,58.13
2022-12-08T07:34:28.735Z,58.86
2022-12-08T07:35:30.603Z,60.41
2022-12-08T07:36:32.939Z,61.55
2022-12-08T07:37:36.233Z,62.22
2022-12-08T07:38:38.042Z,64.20
2022-12-08T07:39:39.876Z,65.36
2022-12-08T07:40:41.602Z,65.59
2022-12-08T07:41:43.364Z,65.12
2022-12-08T07:42:45.161Z,64.38
2022-12-08T07:43:47.722Z,63.22
2022-12-08T07:44:49.490Z,62.30
2022-12-08T07:45:51.778Z,61.48
2022-12-08T07:46:53.828Z,60.64
2022-12-08T07:47:55.643Z,60.24
2022-12-08T07:48:57.514Z,59.57
2022-12-08T07:49:59.224Z,58.55
2022-12-08T07:51:02.711Z,57.73
2022-12-08T07:52:04.507Z,57.61
2022-12-08T07:53:06.824Z,58.30
2022-12-08T07:54:12.664Z,59.52
2022-12-08T07:55:14.426Z,61.35
2022-12-08T07:56:16.778Z,62.73
2022-12-08T07:57:18.680Z,64.31
2022-12-08T07:58:20.437Z,65.26
2022-12-08T07:59:22.187Z,65.27
2022-12-08T08:00:24.006Z,64.66
2022-12-08T08:01:30.031Z,63.82
2022-12-08T08:02:32.144Z,62.67
2022-12-08T08:03:33.924Z,62.02
2022-12-08T08:04:35.760Z,61.03
2022-12-08T08:05:37.852Z,60.30
2022-12-08T08:06:39.652Z,59.63
2022-12-08T08:07:43.616Z,59.11
2022-12-08T08:08:45.450Z,57.93
2022-12-08T08:09:47.261Z,57.56
2022-12-08T08:10:49.005Z,58.13
2022-12-08T08:12:14.410Z,58.86
2022-12-08T08:13:12.455Z,60.46
2022-12-08T08:14:14.355Z,61.76
2022-12-08T08:15:17.443Z,63.06
2022-12-08T08:16:20.515Z,64.25
2022-12-08T08:17:22.447Z,65.34
2022-12-08T08:18:24.310Z,65.26
2022-12-08T08:19:26.059Z,64.55
2022-12-08T08:20:27.853Z,63.62
2022-12-08T08:21:44.867Z,62.82
2022-12-08T08:22:49.767Z,61.66
2022-12-08T08:23:51.557Z,61.17
2022-12-08T08:24:53.621Z,60.46
2022-12-08T08:25:55.679Z,60.04
2022-12-08T08:26:57.490Z,59.81
2022-12-08T08:27:59.302Z,59.16
2022-12-08T08:29:01.054Z,58.22
2022-12-08T08:30:06.451Z,57.57
2022-12-08T08:31:08.747Z,58.04
2022-12-08T08:32:10.950Z,59.21
2022-12-08T08:33:13.717Z,60.23
2022-12-08T08:34:15.808Z,60.83
2022-12-08T08:35:18.241Z,62.75
2022-12-08T08:36:22.050Z,64.22
2022-12-08T08:37:23.965Z,65.11
2022-12-08T08:38:26.064Z,65.65
2022-12-08T08:39:27.939Z,65.37
2022-12-08T08:40:29.706Z,64.55
2022-12-08T08:41:31.794Z,63.68
2022-12-08T08:42:33.621Z,62.76
2022-12-08T08:43:38.359Z,62.14
2022-12-08T08:44:40.777Z,61.24
2022-12-08T08:45:42.530Z,60.78
2022-12-08T08:46:44.531Z,60.13
2022-12-08T08:47:46.862Z,59.66
2022-12-08T08:48:49.270Z,59.17
2022-12-08T08:49:50.997Z,58.02
2022-12-08T08:50:53.230Z,57.65
2022-12-08T08:51:54.966Z,58.11
2022-12-08T08:52:56.690Z,59.59
2022-12-08T08:53:59.363Z,60.05
2022-12-08T08:55:01.155Z,61.02
2022-12-08T08:56:05.158Z,62.08
2022-12-08T08:57:06.950Z,64.16
2022-12-08T08:58:08.740Z,65.62
2022-12-08T08:59:10.933Z,66.27
2022-12-08T09:00:13.399Z,65.85
2022-12-08T09:01:21.702Z,65.11
2022-12-08T09:02:23.520Z,64.16
2022-12-08T09:03:25.361Z,63.19
2022-12-08T09:04:27.180Z,62.25
2022-12-08T09:05:29.064Z,61.36
2022-12-08T09:06:31.612Z,60.54
2022-12-08T09:07:33.545Z,59.90
2022-12-08T09:08:35.280Z,59.47
2022-12-08T09:09:37.609Z,58.39
2022-12-08T09:10:39.567Z,57.51
2022-12-08T09:11:41.300Z,57.83
2022-12-08T09:12:43.157Z,58.34
2022-12-08T09:13:48.988Z,59.84
2022-12-08T09:14:50.717Z,60.98
2022-12-08T09:15:52.611Z,61.76
2022-12-08T09:16:54.480Z,62.70
2022-12-08T09:17:56.327Z,64.23
2022-12-08T09:18:58.077Z,65.15
2022-12-08T09:20:01.435Z,65.26
2022-12-08T09:21:08.798Z,64.54
2022-12-08T09:22:10.627Z,63.68
2022-12-08T09:23:12.496Z,62.64
2022-12-08T09:24:16.817Z,61.70
2022-12-08T09:25:18.558Z,61.00
2022-12-08T09:26:22.994Z,60.09
2022-12-08T09:27:24.773Z,59.47
2022-12-08T09:28:26.641Z,58.37
2022-12-08T09:29:33.994Z,57.45
2022-12-08T09:30:37.591Z,57.64
2022-12-08T09:31:39.511Z,58.47
2022-12-08T09:32:41.454Z,59.65
2022-12-08T09:33:43.232Z,60.72
2022-12-08T09:34:50.457Z,61.14
2022-12-08T09:35:53.726Z,62.18
2022-12-08T09:36:55.492Z,63.46
2022-12-08T09:37:57.612Z,64.83
2022-12-08T09:38:59.531Z,64.91
2022-12-08T09:40:01.937Z,64.60
2022-12-08T09:41:36.499Z,63.97
2022-12-08T09:42:55.943Z,62.84
2022-12-08T09:44:03.456Z,61.41
2022-12-08T09:45:12.499Z,60.60
2022-12-08T09:46:18.859Z,59.79
2022-12-08T09:47:54.863Z,58.63
2022-12-08T09:49:00.934Z,57.32
2022-12-08T09:50:09.775Z,58.03
2022-12-08T09:51:15.691Z,58.86
2022-12-08T09:52:29.807Z,59.62
2022-12-08T09:53:42.322Z,61.00
2022-12-08T09:54:44.146Z,62.28
2022-12-08T09:56:06.998Z,63.17
2022-12-08T09:57:17.129Z,64.86
2022-12-08T09:58:32.532Z,64.87
2022-12-08T09:59:35.600Z,64.12
2022-12-08T10:00:37.427Z,63.02
2022-12-08T10:01:43.842Z,61.90
2022-12-08T10:02:47.647Z,60.72
2022-12-08T10:03:50.042Z,59.95
2022-12-08T10:04:56.070Z,59.48
2022-12-08T10:06:30.149Z,58.75
2022-12-08T10:07:42.801Z,56.94
2022-12-08T10:09:22.640Z,57.36
2022-12-08T10:10:39.591Z,58.57
2022-12-08T10:12:11.897Z,59.69
2022-12-08T10:13:46.249Z,61.13
2022-12-08T10:15:23.361Z,62.73
2022-12-08T10:16:35.842Z,65.04
2022-12-08T10:17:50.250Z,65.37
2022-12-08T10:19:10.252Z,64.81
2022-12-08T10:20:17.206Z,63.09
2022-12-08T10:21:25.971Z,61.84
2022-12-08T10:22:37.683Z,61.04
2022-12-08T10:23:50.246Z,60.03
2022-12-08T10:25:11.385Z,58.99
2022-12-08T10:26:17.485Z,57.53
2022-12-08T10:27:20.425Z,57.02
2022-12-08T10:28:22.229Z,57.48
2022-12-08T10:29:24.041Z,58.35
2022-12-08T10:30:25.859Z,59.68
2022-12-08T10:31:27.857Z,60.34
2022-12-08T10:32:35.430Z,61.25
2022-12-08T10:33:37.148Z,62.34
2022-12-08T10:35:03.462Z,62.98
2022-12-08T10:36:05.449Z,65.13
2022-12-08T10:37:10.375Z,65.44
2022-12-08T10:38:35.326Z,64.80
2022-12-08T10:39:45.648Z,63.41
2022-12-08T10:40:51.211Z,62.08
2022-12-08T10:41:53.039Z,60.98
2022-12-08T10:42:59.792Z,60.23
2022-12-08T10:44:02.046Z,59.61
2022-12-08T10:45:10.074Z,58.45
2022-12-08T10:46:22.443Z,57.38
2022-12-08T10:47:27.637Z,57.58
2022-12-08T10:48:34.102Z,58.35
2022-12-08T10:49:38.655Z,59.34
2022-12-08T10:50:47.820Z,59.91
2022-12-08T10:51:50.245Z,60.90
2022-12-08T10:52:58.435Z,61.97
2022-12-08T10:54:01.494Z,63.17
2022-12-08T10:55:03.692Z,64.63
2022-12-08T10:56:14.221Z,65.27
2022-12-08T10:57:25.393Z,64.88
2022-12-08T10:58:30.943Z,63.78
2022-12-08T10:59:34.018Z,62.52
2022-12-08T11:00:40.225Z,61.62
2022-12-08T11:01:47.264Z,60.33
2022-12-08T11:03:00.375Z,59.86
2022-12-08T11:04:07.074Z,58.46
2022-12-08T11:05:18.505Z,56.87
2022-12-08T11:06:26.062Z,56.73
2022-12-08T11:07:28.620Z,57.71
2022-12-08T11:08:30.659Z,58.69
2022-12-08T11:09:48.208Z,59.57
2022-12-08T11:10:50.113Z,60.22
2022-12-08T11:11:59.870Z,61.01
2022-12-08T11:13:05.584Z,62.34
2022-12-08T11:14:08.637Z,63.68
2022-12-08T11:15:17.441Z,64.72
2022-12-08T11:16:20.320Z,64.67
2022-12-08T11:17:22.014Z,64.02
2022-12-08T11:18:29.122Z,63.07
2022-12-08T11:19:31.048Z,61.84
2022-12-08T11:20:41.914Z,60.44
2022-12-08T11:21:44.574Z,59.15
2022-12-08T11:22:53.221Z,57.74
2022-12-08T11:23:54.950Z,57.01
2022-12-08T11:25:03.243Z,57.28
2022-12-08T11:26:32.219Z,58.08
2022-12-08T11:27:36.973Z,59.26
2022-12-08T11:28:39.578Z,60.16
2022-12-08T11:29:41.956Z,61.22
2022-12-08T11:30:54.389Z,62.25
2022-12-08T11:32:02.589Z,63.40
2022-12-08T11:33:22.015Z,64.77
2022-12-08T11:35:03.283Z,64.68
2022-12-08T11:36:12.008Z,63.20
2022-12-08T11:37:35.043Z,61.95
2022-12-08T11:38:43.653Z,60.64
2022-12-08T11:39:51.590Z,59.50
2022-12-08T11:41:01.644Z,57.96
2022-12-08T11:42:08.225Z,56.77
2022-12-08T11:43:21.949Z,57.04
2022-12-08T11:44:42.280Z,58.03
2022-12-08T11:45:44.448Z,59.34
2022-12-08T11:46:48.886Z,59.96
2022-12-08T11:48:17.162Z,60.91
2022-12-08T11:49:20.621Z,61.82
2022-12-08T11:50:31.552Z,62.94
2022-12-08T11:51:49.813Z,64.55
2022-12-08T11:52:52.300Z,64.82
2022-12-08T11:54:22.504Z,64.10
2022-12-08T11:55:41.635Z,62.31
2022-12-08T11:56:54.102Z,60.86
2022-12-08T11:58:04.117Z,59.73
2022-12-08T11:59:18.794Z,58.35
2022-12-08T12:00:20.646Z,56.95
2022-12-08T12:01:26.374Z,56.92
2022-12-08T12:02:32.256Z,57.62
2022-12-08T12:03:43.679Z,58.37
2022-12-08T12:05:10.868Z,59.46
2022-12-08T12:06:56.546Z,61.28
2022-12-08T12:08:34.250Z,62.88
2022-12-08T12:09:54.772Z,64.76
2022-12-08T12:11:58.099Z,64.57
2022-12-08T12:13:34.735Z,62.67
2022-12-08T12:15:01.112Z,60.78
2022-12-08T12:16:11.903Z,59.17
2022-12-08T12:17:51.020Z,57.62
2022-12-08T12:19:05.164Z,57.21
2022-12-08T12:20:31.980Z,57.79
2022-12-08T12:21:36.203Z,58.66
2022-12-08T12:22:38.468Z,59.50
2022-12-08T12:23:46.672Z,60.25
2022-12-08T12:24:52.062Z,61.25
2022-12-08T12:26:04.002Z,62.82
2022-12-08T12:27:27.553Z,64.12
2022-12-08T12:28:43.237Z,64.60
2022-12-08T12:30:03.083Z,63.81
2022-12-08T12:31:17.942Z,62.69
2022-12-08T12:32:21.213Z,61.43
2022-12-08T12:33:23.873Z,60.39
2022-12-08T12:34:34.938Z,59.42
2022-12-08T12:35:43.536Z,57.54
2022-12-08T12:37:07.039Z,56.66
2022-12-08T12:38:55.840Z,57.26
2022-12-08T12:40:06.079Z,58.48
2022-12-08T12:41:10.685Z,59.36
2022-12-08T12:42:37.037Z,60.34
2022-12-08T12:43:39.854Z,61.07
2022-12-08T12:44:43.411Z,62.02
2022-12-08T12:45:45.752Z,62.72
2022-12-08T12:46:50.297Z,64.17
2022-12-08T12:48:00.779Z,65.21
2022-12-08T12:49:40.412Z,65.05
2022-12-08T12:50:45.310Z,63.51
2022-12-08T12:51:54.308Z,62.26
2022-12-08T12:52:56.321Z,61.04
2022-12-08T12:54:24.878Z,59.92
2022-12-08T12:55:49.019Z,58.38
2022-12-08T12:56:54.805Z,56.80
2022-12-08T12:57:58.824Z,56.99
2022-12-08T12:59:29.446Z,57.62
2022-12-08T13:00:31.250Z,58.68
2022-12-08T13:01:45.694Z,59.23
2022-12-08T13:02:50.699Z,59.94
2022-12-08T13:04:07.458Z,60.81
2022-12-08T13:05:25.988Z,62.29
2022-12-08T13:06:41.239Z,63.76
2022-12-08T13:07:43.081Z,64.51
2022-12-08T13:08:55.143Z,64.26
2022-12-08T13:10:04.618Z,63.09
2022-12-08T13:11:10.160Z,61.66
2022-12-08T13:12:22.954Z,60.56
2022-12-08T13:13:25.030Z,59.61
2022-12-08T13:14:37.907Z,58.33
2022-12-08T13:15:49.957Z,56.69
2022-12-08T13:16:56.370Z,56.43
2022-12-08T13:17:58.408Z,57.19
2022-12-08T13:19:05.346Z,57.96
2022-12-08T13:20:22.219Z,58.95
2022-12-08T13:21:35.996Z,59.87
2022-12-08T13:23:08.309Z,61.03
2022-12-08T13:24:10.010Z,61.77
2022-12-08T13:25:40.127Z,62.43
2022-12-08T13:26:47.450Z,64.21
2022-12-08T13:27:54.688Z,64.72
2022-12-08T13:28:59.899Z,64.23
2022-12-08T13:30:39.019Z,62.86
2022-12-08T13:31:49.816Z,61.05
2022-12-08T13:34:28.371Z,58.17
2022-12-08T13:35:30.886Z,56.75
2022-12-08T13:36:38.770Z,57.00
2022-12-08T13:37:54.260Z,57.76
2022-12-08T13:38:58.931Z,58.36
2022-12-08T13:40:16.547Z,59.44
2022-12-08T13:41:24.528Z,60.73
2022-12-08T13:42:47.900Z,60.92
2022-12-08T13:50:55.709Z,63.69
2022-12-08T13:56:05.551Z,58.79
2022-12-08T13:57:37.336Z,56.56
2022-12-08T13:58:40.362Z,57.44
2022-12-08T13:59:45.688Z,57.96
2022-12-08T14:00:57.392Z,59.42
2022-12-08T14:02:16.065Z,60.23
2022-12-08T14:03:18.133Z,61.16
2022-12-08T14:04:47.918Z,62.21
2022-12-08T14:06:11.831Z,63.39
2022-12-08T14:07:11.721Z,64.78
2022-12-08T14:08:58.958Z,64.65
2022-12-08T14:09:53.345Z,63.11
2022-12-08T14:11:02.377Z,61.81
2022-12-08T14:12:16.361Z,60.93
2022-12-08T14:13:18.219Z,59.62
2022-12-08T14:15:00.478Z,58.31
2022-12-08T14:15:51.440Z,56.91
2022-12-08T14:16:57.165Z,57.19
2022-12-08T14:17:58.926Z,58.10
2022-12-08T14:19:21.458Z,58.89
2022-12-08T14:20:31.790Z,60.10
2022-12-08T14:21:36.238Z,60.77
2022-12-08T14:22:40.864Z,61.50
2022-12-08T14:23:44.219Z,63.16
2022-12-08T14:24:51.834Z,64.50
2022-12-08T14:25:54.767Z,65.13
2022-12-08T14:27:07.496Z,64.71
2022-12-08T14:28:11.632Z,63.88
2022-12-08T14:29:31.017Z,62.63
2022-12-08T14:30:36.286Z,61.54
2022-12-08T14:31:38.230Z,60.41
2022-12-08T14:32:43.061Z,59.45
2022-12-08T14:33:44.906Z,58.03